createdAt,value
2022-10-01T00:01:35.286Z,9.10
2022-10-01T00:04:01.208Z,8.89
2022-10-01T00:06:27.003Z,8.97
2022-10-01T00:08:52.728Z,8.99
2022-10-01T00:11:24.466Z,9.01
2022-10-01T00:13:51.546Z,8.95
2022-10-01T00:16:24.363Z,8.96
2022-10-01T00:18:52.945Z,8.98
2022-10-01T00:21:21.616Z,8.88
2022-10-01T00:23:52.310Z,8.95
2022-10-01T00:26:20.737Z,8.79
2022-10-01T00:28:52.933Z,8.84
2022-10-01T00:31:18.754Z,8.81
2022-10-01T00:33:44.594Z,8.89
2022-10-01T00:36:11.317Z,8.84
2022-10-01T00:38:39.506Z,8.86
2022-10-01T00:41:08.566Z,8.87
2022-10-01T00:43:37.199Z,8.85
2022-10-01T00:46:08.816Z,8.75
2022-10-01T00:48:43.762Z,8.87
2022-10-01T00:51:10.850Z,8.76
2022-10-01T00:53:37.728Z,8.76
2022-10-01T00:56:05.421Z,8.78
2022-10-01T00:58:34.371Z,8.82
2022-10-01T01:01:00.168Z,8.73
2022-10-01T01:03:26.094Z,8.78
2022-10-01T01:05:52.065Z,8.78
2022-10-01T01:08:18.005Z,8.77
2022-10-01T01:10:57.066Z,8.73
2022-10-01T01:13:52.069Z,8.78
2022-10-01T01:16:34.595Z,8.86
2022-10-01T01:19:07.993Z,8.83
2022-10-01T01:21:43.538Z,8.77
2022-10-01T01:24:32.182Z,8.88
2022-10-01T01:27:25.201Z,9.00
2022-10-01T01:30:20.308Z,8.98
2022-10-01T01:32:52.083Z,9.04
2022-10-01T01:35:52.488Z,8.99
2022-10-01T01:38:27.199Z,9.04
2022-10-01T01:40:57.864Z,9.01
2022-10-01T01:43:29.096Z,9.10
2022-10-01T01:45:54.883Z,9.05
2022-10-01T01:48:25.564Z,8.93
2022-10-01T01:51:05.269Z,8.75
2022-10-01T01:53:31.462Z,8.75
2022-10-01T01:55:59.555Z,8.52
2022-10-01T01:58:27.107Z,8.47
2022-10-01T02:00:53.105Z,8.28
2022-10-01T02:03:25.880Z,8.19
2022-10-01T02:06:09.633Z,8.11
2022-10-01T02:08:47.245Z,8.09
2022-10-01T02:11:24.223Z,8.08
2022-10-01T02:14:14.390Z,7.98
2022-10-01T02:16:55.281Z,7.97
2022-10-01T02:19:29.823Z,8.01
2022-10-01T02:22:36.865Z,8.00
2022-10-01T02:25:05.388Z,7.96
2022-10-01T02:27:49.984Z,8.02
2022-10-01T02:30:16.785Z,7.95
2022-10-01T02:32:45.603Z,7.86
2022-10-01T02:35:15.928Z,7.90
2022-10-01T02:37:45.214Z,7.96
2022-10-01T02:40:15.413Z,7.91
2022-10-01T02:42:54.880Z,7.95
2022-10-01T02:45:23.552Z,7.84
2022-10-01T02:47:56.509Z,7.82
2022-10-01T02:50:27.399Z,7.90
2022-10-01T02:53:08.910Z,7.79
2022-10-01T02:55:40.003Z,7.85
2022-10-01T02:58:07.012Z,7.85
2022-10-01T03:00:33.129Z,7.84
2022-10-01T03:02:58.976Z,7.88
2022-10-01T03:05:25.127Z,7.82
2022-10-01T03:07:51.838Z,7.82
2022-10-01T03:10:17.841Z,7.76
2022-10-01T03:12:45.619Z,7.79
2022-10-01T03:15:12.959Z,7.83
2022-10-01T03:17:38.715Z,7.82
2022-10-01T03:20:05.800Z,7.73
2022-10-01T03:22:32.694Z,7.76
2022-10-01T03:24:59.023Z,7.84
2022-10-01T03:27:24.909Z,7.78
2022-10-01T03:29:51.012Z,7.71
2022-10-01T03:32:17.366Z,7.65
2022-10-01T03:34:43.367Z,7.74
2022-10-01T03:37:09.428Z,7.70
2022-10-01T03:39:35.367Z,7.74
2022-10-01T03:42:01.385Z,7.71
2022-10-01T03:44:29.974Z,7.76
2022-10-01T03:46:55.778Z,7.71
2022-10-01T03:49:21.680Z,7.70
2022-10-01T03:51:47.501Z,7.81
2022-10-01T03:54:13.305Z,7.85
2022-10-01T03:56:42.027Z,7.84
2022-10-01T03:59:10.631Z,7.88
2022-10-01T04:01:36.926Z,7.84
2022-10-01T04:04:03.390Z,7.88
2022-10-01T04:06:30.232Z,7.81
2022-10-01T04:08:56.173Z,7.79
2022-10-01T04:11:21.986Z,7.87
2022-10-01T04:13:48.066Z,7.82
2022-10-01T04:16:15.283Z,7.84
2022-10-01T04:18:41.839Z,7.85
2022-10-01T04:21:07.810Z,7.88
2022-10-01T04:23:33.782Z,7.93
2022-10-01T04:26:01.590Z,7.83
2022-10-01T04:28:28.293Z,7.87
2022-10-01T04:31:14.148Z,7.93
2022-10-01T04:33:40.325Z,7.94
2022-10-01T04:36:06.265Z,7.94
2022-10-01T04:38:32.133Z,7.98
2022-10-01T04:40:57.888Z,7.95
2022-10-01T04:43:23.685Z,7.96
2022-10-01T04:45:49.468Z,8.03
2022-10-01T04:48:15.259Z,8.06
2022-10-01T04:50:41.033Z,7.96
2022-10-01T04:53:06.773Z,8.06
2022-10-01T04:55:32.504Z,8.13
2022-10-01T04:57:58.269Z,8.10
2022-10-01T05:00:25.674Z,8.19
2022-10-01T05:02:52.577Z,8.26
2022-10-01T05:05:21.806Z,8.16
2022-10-01T05:07:48.344Z,8.16
2022-10-01T05:10:20.613Z,8.19
2022-10-01T05:12:47.579Z,8.17
2022-10-01T05:15:14.409Z,8.22
2022-10-01T05:17:40.231Z,8.28
2022-10-01T05:20:07.547Z,8.28
2022-10-01T05:22:33.397Z,8.37
2022-10-01T05:24:59.604Z,8.38
2022-10-01T05:27:26.645Z,8.42
2022-10-01T05:29:52.867Z,8.36
2022-10-01T05:32:18.994Z,8.41
2022-10-01T05:34:44.739Z,8.42
2022-10-01T05:37:11.244Z,8.36
2022-10-01T05:39:37.417Z,8.42
2022-10-01T05:42:06.406Z,8.46
2022-10-01T05:44:37.003Z,8.49
2022-10-01T05:47:06.597Z,8.41
2022-10-01T05:49:32.733Z,8.47
2022-10-01T05:52:00.207Z,8.48
2022-10-01T05:54:29.600Z,8.56
2022-10-01T05:56:58.242Z,8.49
2022-10-01T05:59:27.337Z,8.56
2022-10-01T06:01:55.592Z,8.68
2022-10-01T06:04:21.395Z,8.60
2022-10-01T06:06:47.140Z,8.59
2022-10-01T06:09:13.097Z,8.62
2022-10-01T06:11:39.278Z,8.60
2022-10-01T06:14:05.639Z,8.72
2022-10-01T06:16:31.480Z,8.64
2022-10-01T06:18:57.504Z,8.71
2022-10-01T06:21:24.459Z,8.62
2022-10-01T06:23:51.014Z,8.57
2022-10-01T06:26:17.370Z,8.56
2022-10-01T06:28:43.134Z,8.63
2022-10-01T06:31:08.918Z,8.57
2022-10-01T06:33:35.532Z,8.56
2022-10-01T06:36:03.716Z,8.58
2022-10-01T06:38:30.395Z,8.62
2022-10-01T06:40:58.176Z,8.60
2022-10-01T06:43:26.048Z,8.70
2022-10-01T06:45:52.530Z,8.67
2022-10-01T06:48:19.658Z,8.69
2022-10-01T06:50:47.549Z,8.81
2022-10-01T06:53:14.956Z,8.82
2022-10-01T06:55:41.390Z,8.78
2022-10-01T06:58:13.319Z,8.80
2022-10-01T07:00:39.282Z,8.81
2022-10-01T07:03:10.336Z,8.83
2022-10-01T07:05:37.602Z,8.89
2022-10-01T07:08:04.027Z,8.93
2022-10-01T07:10:31.452Z,8.93
2022-10-01T07:13:05.845Z,8.91
2022-10-01T07:15:31.627Z,8.88
2022-10-01T07:17:57.405Z,8.92
2022-10-01T07:20:23.321Z,9.05
2022-10-01T07:22:55.465Z,9.09
2022-10-01T07:25:21.358Z,9.07
2022-10-01T07:27:47.290Z,9.11
2022-10-01T07:30:13.121Z,9.18
2022-10-01T07:32:38.974Z,9.22
2022-10-01T07:35:05.312Z,9.17
2022-10-01T07:37:31.127Z,9.27
2022-10-01T07:39:56.863Z,9.17
2022-10-01T07:42:22.661Z,9.21
2022-10-01T07:44:48.416Z,9.18
2022-10-01T07:47:14.441Z,9.14
2022-10-01T07:49:43.134Z,9.21
2022-10-01T07:52:13.108Z,9.14
2022-10-01T07:54:39.617Z,9.20
2022-10-01T07:57:05.384Z,9.09
2022-10-01T07:59:31.157Z,9.08
2022-10-01T08:01:57.028Z,9.18
2022-10-01T08:04:42.087Z,9.25
2022-10-01T08:07:08.122Z,9.23
2022-10-01T08:09:34.357Z,9.27
2022-10-01T08:12:01.669Z,9.28
2022-10-01T08:14:27.972Z,9.39
2022-10-01T08:16:55.169Z,9.49
2022-10-01T08:19:21.161Z,9.53
2022-10-01T08:21:47.055Z,9.57
2022-10-01T08:24:13.513Z,9.61
2022-10-01T08:26:39.673Z,9.57
2022-10-01T08:29:05.494Z,9.56
2022-10-01T08:31:31.567Z,9.54
2022-10-01T08:33:57.992Z,9.55
2022-10-01T08:36:23.965Z,9.53
2022-10-01T08:38:49.772Z,9.55
2022-10-01T08:41:34.535Z,9.50
2022-10-01T08:44:04.479Z,9.48
2022-10-01T08:46:34.434Z,9.53
2022-10-01T08:49:15.334Z,9.57
2022-10-01T08:52:06.173Z,9.64
2022-10-01T08:54:39.155Z,9.66
2022-10-01T08:57:11.826Z,9.64
2022-10-01T08:59:40.300Z,9.69
2022-10-01T09:02:14.730Z,9.77
2022-10-01T09:04:40.613Z,9.83
2022-10-01T09:07:29.312Z,9.81
2022-10-01T09:10:04.697Z,9.97
2022-10-01T09:12:46.870Z,9.99
2022-10-01T09:15:27.810Z,10.10
2022-10-01T09:18:15.299Z,10.18
2022-10-01T09:20:45.990Z,10.24
2022-10-01T09:23:20.550Z,10.26
2022-10-01T09:25:52.477Z,10.31
2022-10-01T09:28:24.172Z,10.19
2022-10-01T09:30:56.126Z,10.23
2022-10-01T09:33:28.875Z,10.15
2022-10-01T09:36:33.805Z,10.30
2022-10-01T09:39:28.617Z,10.45
2022-10-01T09:41:54.459Z,10.35
2022-10-01T09:44:29.530Z,10.34
2022-10-01T09:46:55.583Z,10.31
2022-10-01T09:49:45.368Z,10.32
2022-10-01T09:52:26.336Z,10.28
2022-10-01T09:55:17.165Z,10.28
2022-10-01T09:57:52.620Z,10.33
2022-10-01T10:00:22.238Z,10.26
2022-10-01T10:02:53.494Z,10.28
2022-10-01T10:05:25.280Z,10.29
2022-10-01T10:07:58.626Z,10.38
2022-10-01T10:10:36.202Z,10.35
2022-10-01T10:13:19.381Z,10.42
2022-10-01T10:16:14.173Z,10.45
2022-10-01T10:18:40.628Z,10.38
2022-10-01T10:21:17.349Z,10.36
2022-10-01T10:23:52.297Z,10.38
2022-10-01T10:26:27.857Z,10.33
2022-10-01T10:28:55.761Z,10.47
2022-10-01T10:31:25.581Z,10.51
2022-10-01T10:34:01.627Z,10.54
2022-10-01T10:36:33.596Z,10.60
2022-10-01T10:39:00.141Z,10.62
2022-10-01T10:41:28.319Z,10.62
2022-10-01T10:43:59.824Z,10.82
2022-10-01T10:46:33.428Z,10.88
2022-10-01T10:49:05.279Z,10.91
2022-10-01T10:52:17.519Z,10.99
2022-10-01T10:54:47.421Z,11.00
2022-10-01T10:57:20.485Z,11.15
2022-10-01T11:00:01.247Z,11.45
2022-10-01T11:02:30.059Z,11.30
2022-10-01T11:05:04.091Z,11.42
2022-10-01T11:07:31.187Z,11.24
2022-10-01T11:10:00.135Z,11.22
2022-10-01T11:12:26.000Z,11.23
2022-10-01T11:15:15.081Z,11.19
2022-10-01T11:18:01.685Z,11.27
2022-10-01T11:20:49.762Z,11.35
2022-10-01T11:23:37.305Z,11.45
2022-10-01T11:26:34.238Z,11.34
2022-10-01T11:29:18.528Z,11.41
2022-10-01T11:32:19.409Z,11.57
2022-10-01T11:35:06.624Z,11.66
2022-10-01T11:37:41.293Z,11.84
2022-10-01T11:40:27.876Z,12.02
2022-10-01T11:43:02.221Z,12.10
2022-10-01T11:45:35.158Z,12.15
2022-10-01T11:48:08.377Z,12.14
2022-10-01T11:50:39.585Z,11.91
2022-10-01T11:53:30.229Z,12.00
2022-10-01T11:56:20.156Z,11.97
2022-10-01T11:59:03.575Z,12.22
2022-10-01T12:01:47.002Z,12.27
2022-10-01T12:04:16.717Z,12.31
2022-10-01T12:06:54.857Z,12.57
2022-10-01T12:09:29.167Z,12.85
2022-10-01T12:12:07.055Z,12.66
2022-10-01T12:14:50.266Z,12.64
2022-10-01T12:17:34.485Z,12.60
2022-10-01T12:20:04.958Z,12.61
2022-10-01T12:22:35.104Z,12.40
2022-10-01T12:25:01.072Z,12.52
2022-10-01T12:28:04.946Z,14.34
2022-10-01T12:30:49.054Z,16.82
2022-10-01T12:33:44.044Z,16.49
2022-10-01T12:36:19.227Z,14.92
2022-10-01T12:38:59.680Z,14.55
2022-10-01T12:41:48.831Z,13.57
2022-10-01T12:44:26.480Z,13.38
2022-10-01T12:47:14.189Z,14.45
2022-10-01T12:50:07.591Z,16.93
2022-10-01T12:52:39.298Z,16.49
2022-10-01T12:55:27.133Z,15.57
2022-10-01T12:58:16.652Z,14.65
2022-10-01T13:01:06.254Z,13.86
2022-10-01T13:03:51.565Z,13.89
2022-10-01T13:06:36.977Z,13.50
2022-10-01T13:09:08.475Z,13.47
2022-10-01T13:11:43.929Z,13.31
2022-10-01T13:14:12.426Z,13.22
2022-10-01T13:16:53.674Z,13.20
2022-10-01T13:19:26.284Z,12.92
2022-10-01T13:21:57.028Z,12.67
2022-10-01T13:24:26.643Z,12.56
2022-10-01T13:26:59.275Z,12.43
2022-10-01T13:29:53.386Z,12.54
2022-10-01T13:32:36.758Z,12.48
2022-10-01T13:35:25.993Z,12.59
2022-10-01T13:37:52.463Z,12.52
2022-10-01T13:40:30.378Z,12.45
2022-10-01T13:43:00.900Z,12.40
2022-10-01T13:45:38.945Z,12.39
2022-10-01T13:48:11.907Z,12.41
2022-10-01T13:50:39.689Z,12.53
2022-10-01T13:53:14.501Z,12.46
2022-10-01T13:55:42.380Z,12.55
2022-10-01T13:58:40.519Z,13.14
2022-10-01T14:01:26.978Z,13.53
2022-10-01T14:04:14.039Z,14.19
2022-10-01T14:07:16.315Z,14.56
2022-10-01T14:09:49.632Z,14.39
2022-10-01T14:12:47.480Z,14.35
2022-10-01T14:15:35.918Z,14.59
2022-10-01T14:18:15.796Z,14.62
2022-10-01T14:21:03.074Z,14.40
2022-10-01T14:23:42.947Z,14.45
2022-10-01T14:26:21.125Z,14.57
2022-10-01T14:29:08.188Z,14.55
2022-10-01T14:31:41.146Z,14.15
2022-10-01T14:34:23.873Z,13.79
2022-10-01T14:36:52.810Z,13.57
2022-10-01T14:39:28.794Z,13.22
2022-10-01T14:41:56.659Z,13.33
2022-10-01T14:44:25.415Z,13.03
2022-10-01T14:46:56.534Z,13.00
2022-10-01T14:49:32.125Z,12.75
2022-10-01T14:52:01.917Z,12.54
2022-10-01T14:54:30.446Z,12.54
2022-10-01T14:56:56.589Z,12.41
2022-10-01T14:59:37.070Z,12.42
2022-10-01T15:02:16.732Z,12.51
2022-10-01T15:04:47.549Z,12.55
2022-10-01T15:07:15.381Z,12.57
2022-10-01T15:09:41.161Z,12.54
2022-10-01T15:12:08.030Z,12.40
2022-10-01T15:14:35.889Z,12.36
2022-10-01T15:17:06.812Z,12.48
2022-10-01T15:19:42.738Z,12.55
2022-10-01T15:22:12.110Z,12.48
2022-10-01T15:24:42.462Z,12.38
2022-10-01T15:27:10.114Z,12.27
2022-10-01T15:29:41.377Z,12.33
2022-10-01T15:32:09.012Z,12.39
2022-10-01T15:34:38.242Z,12.32
2022-10-01T15:37:04.380Z,12.39
2022-10-01T15:39:40.694Z,12.48
2022-10-01T15:42:18.017Z,12.51
2022-10-01T15:44:46.203Z,12.58
2022-10-01T15:47:32.182Z,12.65
2022-10-01T15:50:10.136Z,12.60
2022-10-01T15:52:50.807Z,12.55
2022-10-01T15:55:22.020Z,12.53
2022-10-01T15:57:53.036Z,12.44
2022-10-01T16:00:28.042Z,12.43
2022-10-01T16:02:56.420Z,12.58
2022-10-01T16:05:25.552Z,12.50
2022-10-01T16:07:57.724Z,12.40
2022-10-01T16:10:29.487Z,12.40
2022-10-01T16:12:55.325Z,12.23
2022-10-01T16:15:29.700Z,12.33
2022-10-01T16:18:04.204Z,12.31
2022-10-01T16:20:37.016Z,12.33
2022-10-01T16:23:30.703Z,12.34
2022-10-01T16:25:56.609Z,12.25
2022-10-01T16:28:31.705Z,12.25
2022-10-01T16:30:57.701Z,12.20
2022-10-01T16:33:25.792Z,12.17
2022-10-01T16:36:08.343Z,12.28
2022-10-01T16:38:34.126Z,12.24
2022-10-01T16:41:00.334Z,12.05
2022-10-01T16:43:26.230Z,12.02
2022-10-01T16:45:52.535Z,12.07
2022-10-01T16:48:22.240Z,12.10
2022-10-01T16:50:48.394Z,11.98
2022-10-01T16:53:16.178Z,12.05
2022-10-01T16:55:43.049Z,11.96
2022-10-01T16:58:09.573Z,11.80
2022-10-01T17:00:36.465Z,11.78
2022-10-01T17:03:08.492Z,11.84
2022-10-01T17:05:36.277Z,11.70
2022-10-01T17:08:10.436Z,11.71
2022-10-01T17:10:40.469Z,11.75
2022-10-01T17:13:06.357Z,11.68
2022-10-01T17:15:32.580Z,11.65
2022-10-01T17:17:58.831Z,11.54
2022-10-01T17:20:27.829Z,11.64
2022-10-01T17:22:54.830Z,11.54
2022-10-01T17:25:22.920Z,11.43
2022-10-01T17:27:49.198Z,11.40
2022-10-01T17:30:15.714Z,11.40
2022-10-01T17:32:44.317Z,11.35
2022-10-01T17:35:11.779Z,11.40
2022-10-01T17:37:37.912Z,11.33
2022-10-01T17:40:05.463Z,11.39
2022-10-01T17:42:33.719Z,11.40
2022-10-01T17:45:00.426Z,11.36
2022-10-01T17:47:26.256Z,11.32
2022-10-01T17:49:52.404Z,11.16
2022-10-01T17:52:18.388Z,11.13
2022-10-01T17:54:44.844Z,11.09
2022-10-01T17:57:11.284Z,11.09
2022-10-01T17:59:37.566Z,11.11
2022-10-01T18:02:23.583Z,11.10
2022-10-01T18:04:52.883Z,11.16
2022-10-01T18:07:19.594Z,11.04
2022-10-01T18:09:45.766Z,11.10
2022-10-01T18:12:12.566Z,11.07
2022-10-01T18:14:38.557Z,11.11
2022-10-01T18:17:04.415Z,11.07
2022-10-01T18:19:52.830Z,11.07
2022-10-01T18:22:16.450Z,11.05
2022-10-01T18:24:45.135Z,10.98
2022-10-01T18:27:12.931Z,11.07
2022-10-01T18:29:39.293Z,10.96
2022-10-01T18:32:20.019Z,10.92
2022-10-01T18:34:54.015Z,11.01
2022-10-01T18:37:40.194Z,11.01
2022-10-01T18:40:16.639Z,10.96
2022-10-01T18:42:45.709Z,10.88
2022-10-01T18:45:21.772Z,11.04
2022-10-01T18:48:06.325Z,10.92
2022-10-01T18:50:46.574Z,10.80
2022-10-01T18:53:32.801Z,10.83
2022-10-01T18:56:13.721Z,10.79
2022-10-01T18:58:56.308Z,10.63
2022-10-01T19:01:31.211Z,10.71
2022-10-01T19:04:18.445Z,10.65
2022-10-01T19:06:48.280Z,10.61
2022-10-01T19:09:29.643Z,10.62
2022-10-01T19:12:00.272Z,10.53
2022-10-01T19:15:06.041Z,10.49
2022-10-01T19:17:46.621Z,10.55
2022-10-01T19:20:24.339Z,10.43
2022-10-01T19:23:05.979Z,10.35
2022-10-01T19:25:40.553Z,10.35
2022-10-01T19:28:21.179Z,10.51
2022-10-01T19:31:38.423Z,10.41
2022-10-01T19:34:38.511Z,10.37
2022-10-01T19:37:25.180Z,10.36
2022-10-01T19:39:55.692Z,10.32
2022-10-01T19:42:28.864Z,10.37
2022-10-01T19:45:13.360Z,10.38
2022-10-01T19:47:39.793Z,10.46
2022-10-01T19:50:32.127Z,10.33
2022-10-01T19:52:58.589Z,10.25
2022-10-01T19:55:29.634Z,10.31
2022-10-01T19:57:55.738Z,10.27
2022-10-01T20:00:23.049Z,10.20
2022-10-01T20:03:29.809Z,10.27
2022-10-01T20:06:02.808Z,10.19
2022-10-01T20:08:35.544Z,10.21
2022-10-01T20:11:18.183Z,10.17
2022-10-01T20:13:52.740Z,10.29
2022-10-01T20:16:39.996Z,10.21
2022-10-01T20:19:41.399Z,10.23
2022-10-01T20:22:21.771Z,10.43
2022-10-01T20:25:12.622Z,10.34
2022-10-01T20:27:50.166Z,10.36
2022-10-01T20:30:19.433Z,10.32
2022-10-01T20:32:59.135Z,10.36
2022-10-01T20:35:29.174Z,10.28
2022-10-01T20:38:06.135Z,10.27
2022-10-01T20:40:48.896Z,10.15
2022-10-01T20:43:20.405Z,10.15
2022-10-01T20:45:50.643Z,10.19
2022-10-01T20:48:22.621Z,10.12
2022-10-01T20:50:53.172Z,10.01
2022-10-01T20:53:38.176Z,10.07
2022-10-01T20:56:12.363Z,10.13
2022-10-01T20:58:44.031Z,10.02
2022-10-01T21:01:20.390Z,10.05
2022-10-01T21:03:53.573Z,9.99
2022-10-01T21:06:32.443Z,10.00
2022-10-01T21:09:42.001Z,10.09
2022-10-01T21:12:23.263Z,9.98
2022-10-01T21:14:56.071Z,10.09
2022-10-01T21:17:55.936Z,10.07
2022-10-01T21:20:43.381Z,10.07
2022-10-01T21:23:27.139Z,10.07
2022-10-01T21:26:43.568Z,10.05
2022-10-01T21:29:50.774Z,10.01
2022-10-01T21:33:00.075Z,10.00
2022-10-01T21:35:52.148Z,9.95
2022-10-01T21:38:24.784Z,9.97
2022-10-01T21:41:12.558Z,10.07
2022-10-01T21:43:56.804Z,10.15
2022-10-01T21:46:46.788Z,10.09
2022-10-01T21:49:28.378Z,10.03
2022-10-01T21:51:54.471Z,9.93
2022-10-01T21:54:42.020Z,9.88
2022-10-01T21:57:10.646Z,9.96
2022-10-01T21:59:58.417Z,9.93
2022-10-01T22:02:42.716Z,9.88
2022-10-01T22:05:22.781Z,9.87
2022-10-01T22:08:17.898Z,9.86
2022-10-01T22:10:47.715Z,9.91
2022-10-01T22:13:22.562Z,9.88
2022-10-01T22:15:53.511Z,9.92
2022-10-01T22:18:45.389Z,9.84
2022-10-01T22:21:16.760Z,9.77
2022-10-01T22:23:50.004Z,9.83
2022-10-01T22:26:20.315Z,9.85
2022-10-01T22:28:53.159Z,9.83
2022-10-01T22:31:25.315Z,9.92
2022-10-01T22:33:56.613Z,9.91
2022-10-01T22:36:30.865Z,9.94
2022-10-01T22:39:04.041Z,9.88
2022-10-01T22:41:36.317Z,9.94
2022-10-01T22:44:11.723Z,9.95
2022-10-01T22:46:40.687Z,9.91
2022-10-01T22:49:28.015Z,9.95
2022-10-01T22:52:23.627Z,9.98
2022-10-01T22:55:04.330Z,10.00
2022-10-01T22:58:03.083Z,10.08
2022-10-01T23:00:35.713Z,10.06
2022-10-01T23:03:16.534Z,10.05
2022-10-01T23:05:48.236Z,10.02
2022-10-01T23:08:27.655Z,10.04
2022-10-01T23:11:02.544Z,10.11
2022-10-01T23:13:43.432Z,10.16
2022-10-01T23:16:18.575Z,10.13
2022-10-01T23:18:50.128Z,10.12
2022-10-01T23:21:31.909Z,10.13
2022-10-01T23:24:31.597Z,10.08
2022-10-01T23:27:19.327Z,10.11
2022-10-01T23:30:06.866Z,10.14
2022-10-01T23:32:32.585Z,10.14
2022-10-01T23:35:18.719Z,10.12
2022-10-01T23:37:50.720Z,10.15
2022-10-01T23:40:20.431Z,10.14
2022-10-01T23:42:59.006Z,10.21
2022-10-01T23:45:48.719Z,10.17
2022-10-01T23:48:29.879Z,10.21
2022-10-01T23:51:07.031Z,10.23
2022-10-01T23:53:54.348Z,10.26
2022-10-01T23:56:50.372Z,10.23
2022-10-01T23:59:43.977Z,10.33
